createdAt,value
2018-02-04T00:00:06.853Z,96.40
2018-02-04T00:01:06.843Z,95.74
2018-02-04T00:02:06.817Z,95.74
2018-02-04T00:03:06.810Z,96.02
2018-02-04T00:04:06.775Z,95.64
2018-02-04T00:05:06.759Z,95.64
2018-02-04T00:06:06.752Z,95.64
2018-02-04T00:07:06.717Z,95.64
2018-02-04T00:08:06.699Z,95.83
2018-02-04T00:09:06.679Z,95.83
2018-02-04T00:10:06.664Z,95.83
2018-02-04T00:11:06.656Z,95.83
2018-02-04T00:12:06.619Z,96.50
2018-02-04T00:13:06.596Z,96.40
2018-02-04T00:14:06.580Z,96.40
2018-02-04T00:15:06.561Z,95.64
2018-02-04T00:16:06.560Z,96.02
2018-02-04T00:17:06.524Z,95.64
2018-02-04T00:18:06.506Z,95.55
2018-02-04T00:19:06.483Z,95.93
2018-02-04T00:20:06.464Z,96.40
2018-02-04T00:21:06.445Z,95.83
2018-02-04T00:22:06.439Z,95.93
2018-02-04T00:23:06.450Z,95.26
2018-02-04T00:24:06.385Z,95.97
2018-02-04T00:25:06.371Z,95.55
2018-02-04T00:26:06.349Z,95.59
2018-02-04T00:27:06.331Z,95.78
2018-02-04T00:28:06.306Z,95.97
2018-02-04T00:29:06.297Z,95.97
2018-02-04T00:30:06.266Z,96.16
2018-02-04T00:31:06.249Z,96.26
2018-02-04T00:32:06.228Z,96.07
2018-02-04T00:33:06.209Z,96.16
2018-02-04T00:34:06.207Z,96.54
2018-02-04T00:35:06.171Z,96.35
2018-02-04T00:36:06.153Z,96.64
2018-02-04T00:37:06.135Z,96.16
2018-02-04T00:38:06.113Z,95.59
2018-02-04T00:39:06.095Z,95.69
2018-02-04T00:40:06.084Z,94.84
2018-02-04T00:41:06.067Z,95.03
2018-02-04T00:42:06.030Z,94.84
2018-02-04T00:43:06.014Z,95.03
2018-02-04T00:44:06.009Z,95.03
2018-02-04T00:45:05.993Z,94.93
2018-02-04T00:46:05.957Z,95.03
2018-02-04T00:47:05.930Z,94.93
2018-02-04T00:48:05.913Z,95.78
2018-02-04T00:49:05.933Z,95.50
2018-02-04T00:50:05.876Z,95.69
2018-02-04T00:51:05.855Z,96.35
2018-02-04T00:52:05.835Z,96.16
2018-02-04T00:53:05.821Z,96.45
2018-02-04T00:54:05.795Z,96.07
2018-02-04T00:55:05.790Z,96.73
2018-02-04T00:56:05.754Z,97.11
2018-02-04T00:57:05.734Z,96.45
2018-02-04T00:58:05.715Z,96.54
2018-02-04T00:59:05.697Z,96.35
2018-02-04T01:00:05.689Z,96.45
2018-02-04T01:01:05.657Z,95.78
2018-02-04T01:02:05.635Z,96.35
2018-02-04T01:03:05.616Z,95.40
2018-02-04T01:04:05.595Z,95.03
2018-02-04T01:05:05.590Z,94.56
2018-02-04T01:06:05.552Z,94.65
2018-02-04T01:07:05.536Z,94.37
2018-02-04T01:08:05.528Z,93.99
2018-02-04T01:09:05.494Z,93.89
2018-02-04T01:10:05.492Z,93.99
2018-02-04T01:11:05.456Z,93.80
2018-02-04T01:12:05.432Z,94.18
2018-02-04T01:13:05.418Z,94.18
2018-02-04T01:14:05.395Z,94.08
2018-02-04T01:15:05.374Z,93.42
2018-02-04T01:16:05.370Z,93.61
2018-02-04T01:17:05.336Z,93.80
2018-02-04T01:18:05.319Z,93.61
2018-02-04T01:19:05.337Z,93.61
2018-02-04T01:20:05.275Z,93.42
2018-02-04T01:21:05.269Z,93.32
2018-02-04T01:22:05.237Z,93.42
2018-02-04T01:23:05.217Z,93.04
2018-02-04T01:24:05.195Z,93.13
2018-02-04T01:25:05.181Z,93.23
2018-02-04T01:26:05.174Z,92.85
2018-02-04T01:27:05.137Z,92.29
2018-02-04T01:28:05.116Z,92.29
2018-02-04T01:29:05.099Z,92.57
2018-02-04T01:30:05.101Z,92.19
2018-02-04T01:31:05.073Z,92.10
2018-02-04T01:32:05.037Z,91.91
2018-02-04T01:33:05.016Z,91.72
2018-02-04T01:34:05.671Z,91.15
2018-02-04T01:35:04.978Z,91.53
2018-02-04T01:36:04.957Z,90.96
2018-02-04T01:37:04.953Z,91.15
2018-02-04T01:38:04.918Z,90.96
2018-02-04T01:39:04.911Z,90.67
2018-02-04T01:40:04.873Z,91.05
2018-02-04T01:41:04.899Z,90.67
2018-02-04T01:42:04.836Z,90.96
2018-02-04T01:43:04.817Z,90.20
2018-02-04T01:44:04.796Z,90.30
2018-02-04T01:45:04.796Z,91.05
2018-02-04T01:46:04.758Z,90.30
2018-02-04T01:47:04.738Z,90.39
2018-02-04T01:48:04.716Z,90.30
2018-02-04T01:49:04.698Z,90.67
2018-02-04T01:50:04.676Z,90.48
2018-02-04T01:51:04.672Z,90.58
2018-02-04T01:52:04.636Z,90.20
2018-02-04T01:53:04.619Z,89.92
2018-02-04T01:54:04.614Z,89.92
2018-02-04T01:55:04.576Z,90.20
2018-02-04T01:56:04.561Z,90.30
2018-02-04T01:57:04.537Z,90.30
2018-02-04T01:58:04.529Z,90.11
2018-02-04T01:59:04.522Z,89.82
2018-02-04T02:00:04.477Z,89.92
2018-02-04T02:01:04.473Z,89.82
2018-02-04T02:02:04.438Z,90.01
2018-02-04T02:03:04.416Z,90.20
2018-02-04T02:04:04.412Z,90.20
2018-02-04T02:05:04.391Z,90.11
2018-02-04T02:06:04.357Z,89.16
2018-02-04T02:07:04.352Z,89.44
2018-02-04T02:08:05.173Z,89.35
2018-02-04T02:09:04.307Z,89.54
2018-02-04T02:10:04.275Z,89.73
2018-02-04T02:11:04.256Z,90.11
2018-02-04T02:12:04.256Z,90.11
2018-02-04T02:13:04.220Z,89.82
2018-02-04T02:14:04.202Z,89.54
2018-02-04T02:15:04.173Z,89.54
2018-02-04T02:16:04.157Z,89.92
2018-02-04T02:17:04.200Z,89.92
2018-02-04T02:18:04.116Z,90.11
2018-02-04T02:19:04.097Z,90.01
2018-02-04T02:20:04.074Z,89.82
2018-02-04T02:21:04.053Z,89.63
2018-02-04T02:22:04.101Z,90.01
2018-02-04T02:23:04.028Z,89.73
2018-02-04T02:24:04.001Z,90.01
2018-02-04T02:25:03.973Z,90.30
2018-02-04T02:26:03.959Z,89.92
2018-02-04T02:27:03.937Z,90.20
2018-02-04T02:28:03.932Z,90.86
2018-02-04T02:29:03.896Z,90.39
2018-02-04T02:30:03.877Z,89.92
2018-02-04T02:31:03.858Z,90.01
2018-02-04T02:32:03.837Z,89.82
2018-02-04T02:33:03.817Z,89.54
2018-02-04T02:34:03.814Z,90.01
2018-02-04T02:35:03.782Z,89.54
2018-02-04T02:36:03.756Z,89.16
2018-02-04T02:37:03.742Z,89.35
2018-02-04T02:38:03.740Z,89.44
2018-02-04T02:39:03.713Z,89.25
2018-02-04T02:40:03.675Z,89.35
2018-02-04T02:41:03.657Z,89.73
2018-02-04T02:42:03.642Z,89.25
2018-02-04T02:43:03.614Z,89.25
2018-02-04T02:44:03.613Z,89.35
2018-02-04T02:45:03.597Z,90.01
2018-02-04T02:46:03.559Z,89.92
2018-02-04T02:47:03.544Z,89.59
2018-02-04T02:48:03.575Z,89.73
2018-02-04T02:49:03.515Z,89.21
2018-02-04T02:50:03.477Z,89.12
2018-02-04T02:51:03.476Z,89.40
2018-02-04T02:52:03.442Z,89.06
2018-02-04T02:53:03.416Z,88.64
2018-02-04T02:54:03.399Z,89.21
2018-02-04T02:55:03.375Z,89.44
2018-02-04T02:56:03.373Z,88.78
2018-02-04T02:57:03.336Z,88.31
2018-02-04T02:58:03.310Z,88.40
2018-02-04T02:59:03.302Z,87.93
2018-02-04T03:00:03.272Z,88.12
2018-02-04T03:01:03.254Z,87.93
2018-02-04T03:02:03.251Z,88.59
2018-02-04T03:03:03.215Z,88.17
2018-02-04T03:04:03.306Z,88.26
2018-02-04T03:05:03.175Z,88.74
2018-02-04T03:06:03.176Z,89.12
2018-02-04T03:07:03.135Z,88.74
2018-02-04T03:08:03.155Z,88.17
2018-02-04T03:09:03.098Z,88.55
2018-02-04T03:10:03.081Z,88.93
2018-02-04T03:11:03.053Z,89.12
2018-02-04T03:12:03.033Z,88.74
2018-02-04T03:13:03.036Z,88.83
2018-02-04T03:14:02.994Z,88.36
2018-02-04T03:15:02.969Z,88.26
2018-02-04T03:16:02.951Z,88.07
2018-02-04T03:17:02.942Z,87.60
2018-02-04T03:18:02.926Z,87.51
2018-02-04T03:19:02.915Z,87.79
2018-02-04T03:20:02.873Z,86.75
2018-02-04T03:21:02.849Z,86.85
2018-02-04T03:22:02.833Z,87.32
2018-02-04T03:23:02.837Z,87.51
2018-02-04T03:24:02.790Z,87.32
2018-02-04T03:25:03.201Z,87.23
2018-02-04T03:26:02.746Z,87.51
2018-02-04T03:27:02.790Z,87.23
2018-02-04T03:28:02.741Z,88.17
2018-02-04T03:29:02.703Z,88.07
2018-02-04T03:30:02.685Z,87.60
2018-02-04T03:31:02.645Z,87.32
2018-02-04T03:32:02.628Z,88.07
2018-02-04T03:33:02.609Z,87.32
2018-02-04T03:34:02.606Z,87.60
2018-02-04T03:35:02.565Z,87.32
2018-02-04T03:36:02.547Z,88.07
2018-02-04T03:37:02.528Z,87.88
2018-02-04T03:38:02.504Z,87.70
2018-02-04T03:39:02.487Z,87.70
2018-02-04T03:40:02.480Z,87.79
2018-02-04T03:41:02.446Z,88.07
2018-02-04T03:42:02.433Z,87.32
2018-02-04T03:43:02.407Z,87.32
2018-02-04T03:44:02.387Z,86.85
2018-02-04T03:45:02.365Z,86.66
2018-02-04T03:46:02.361Z,86.66
2018-02-04T03:47:02.325Z,86.47
2018-02-04T03:48:02.301Z,87.13
2018-02-04T03:49:02.284Z,86.66
2018-02-04T03:50:02.282Z,86.47
2018-02-04T03:51:02.242Z,87.13
2018-02-04T03:52:02.221Z,87.04
2018-02-04T03:53:02.201Z,86.75
2018-02-04T03:54:02.184Z,86.85
2018-02-04T03:55:02.157Z,87.13
2018-02-04T03:56:02.161Z,87.04
2018-02-04T03:57:02.121Z,87.51
2018-02-04T03:58:02.104Z,87.04
2018-02-04T03:59:02.083Z,86.85
2018-02-04T04:00:02.059Z,86.66
2018-02-04T04:01:02.057Z,86.47
2018-02-04T04:02:02.036Z,86.94
2018-02-04T04:03:02.001Z,87.51
2018-02-04T04:04:01.983Z,87.23
2018-02-04T04:05:01.961Z,87.32
2018-02-04T04:06:01.939Z,87.04
2018-02-04T04:07:01.935Z,87.23
2018-02-04T04:08:01.899Z,86.56
2018-02-04T04:09:01.879Z,87.04
2018-02-04T04:10:01.860Z,86.37
2018-02-04T04:11:01.839Z,86.28
2018-02-04T04:12:01.822Z,85.42
2018-02-04T04:13:01.812Z,85.80
2018-02-04T04:14:01.781Z,85.80
2018-02-04T04:15:01.755Z,85.42
2018-02-04T04:16:01.740Z,85.80
2018-02-04T04:17:01.717Z,85.24
2018-02-04T04:18:01.710Z,84.95
2018-02-04T04:19:01.675Z,85.14
2018-02-04T04:20:01.656Z,85.14
2018-02-04T04:21:01.640Z,84.67
2018-02-04T04:22:01.630Z,84.29
2018-02-04T04:23:01.597Z,83.53
2018-02-04T04:24:01.574Z,83.72
2018-02-04T04:25:01.555Z,84.01
2018-02-04T04:26:01.548Z,84.48
2018-02-04T04:27:01.513Z,84.29
2018-02-04T04:28:01.493Z,84.01
2018-02-04T04:29:01.474Z,83.72
2018-02-04T04:30:01.451Z,83.82
2018-02-04T04:31:01.446Z,83.82
2018-02-04T04:32:01.427Z,83.63
2018-02-04T04:33:01.392Z,83.15
2018-02-04T04:34:01.373Z,82.68
2018-02-04T04:35:01.350Z,82.87
2018-02-04T04:36:01.347Z,82.87
2018-02-04T04:37:01.308Z,82.59
2018-02-04T04:38:01.290Z,82.21
2018-02-04T04:39:01.264Z,82.59
2018-02-04T04:40:01.250Z,82.21
2018-02-04T04:41:01.229Z,82.02
2018-02-04T04:42:01.219Z,82.50
2018-02-04T04:43:01.189Z,82.40
2018-02-04T04:44:01.168Z,82.50
2018-02-04T04:45:01.146Z,82.78
2018-02-04T04:46:01.143Z,82.59
2018-02-04T04:47:01.107Z,82.68
2018-02-04T04:48:01.132Z,83.06
2018-02-04T04:49:01.063Z,82.21
2018-02-04T04:50:01.041Z,82.78
2018-02-04T04:51:01.024Z,82.31
2018-02-04T04:52:01.021Z,82.02
2018-02-04T04:53:00.998Z,82.21
2018-02-04T04:54:00.972Z,82.78
2018-02-04T04:55:00.942Z,83.06
2018-02-04T04:56:00.941Z,82.21
2018-02-04T04:57:00.901Z,82.21
2018-02-04T04:58:00.882Z,82.31
2018-02-04T04:59:00.856Z,82.40
2018-02-04T05:00:00.839Z,82.78
2018-02-04T05:01:00.821Z,82.21
2018-02-04T05:02:00.812Z,81.83
2018-02-04T05:03:00.791Z,81.45
2018-02-04T05:04:00.759Z,81.64
2018-02-04T05:05:00.740Z,82.21
2018-02-04T05:06:00.718Z,81.83
2018-02-04T05:07:00.695Z,81.17
2018-02-04T05:08:00.696Z,81.07
2018-02-04T05:09:00.661Z,80.69
2018-02-04T05:10:00.638Z,80.60
2018-02-04T05:11:00.616Z,81.36
2018-02-04T05:12:00.612Z,80.79
2018-02-04T05:13:00.577Z,79.99
2018-02-04T05:14:00.568Z,80.18
2018-02-04T05:15:00.537Z,80.46
2018-02-04T05:16:00.516Z,79.61
2018-02-04T05:17:00.495Z,78.48
2018-02-04T05:18:00.470Z,77.91
2018-02-04T05:19:00.466Z,77.25
2018-02-04T05:20:00.446Z,78.29
2018-02-04T05:21:00.413Z,78.20
2018-02-04T05:22:00.392Z,77.34
2018-02-04T05:23:00.372Z,77.34
2018-02-04T05:24:00.367Z,76.97
2018-02-04T05:25:00.329Z,77.53
2018-02-04T05:26:00.309Z,77.91
2018-02-04T05:27:00.288Z,78.01
2018-02-04T05:28:00.268Z,77.82
2018-02-04T05:29:00.252Z,77.53
2018-02-04T05:30:00.243Z,77.06
2018-02-04T05:31:00.204Z,76.50
2018-02-04T05:32:00.188Z,76.59
2018-02-04T05:33:00.166Z,77.15
2018-02-04T05:34:00.146Z,77.25
2018-02-04T05:35:00.125Z,77.91
2018-02-04T05:36:00.117Z,77.15
2018-02-04T05:37:00.098Z,76.87
2018-02-04T05:38:00.063Z,76.78
2018-02-04T05:39:00.053Z,76.21
2018-02-04T05:40:00.034Z,75.64
2018-02-04T05:40:59.999Z,76.02
2018-02-04T05:42:00.000Z,75.93
2018-02-04T05:42:59.957Z,76.12
2018-02-04T05:43:59.937Z,75.55
2018-02-04T05:44:59.916Z,75.64
2018-02-04T05:45:59.896Z,75.55
2018-02-04T05:46:59.876Z,74.88
2018-02-04T05:47:59.870Z,75.26
2018-02-04T05:48:59.834Z,74.88
2018-02-04T05:49:59.816Z,75.45
2018-02-04T05:50:59.792Z,75.64
2018-02-04T05:51:59.774Z,76.31
2018-02-04T05:52:59.751Z,75.74
2018-02-04T05:53:59.744Z,75.55
2018-02-04T05:54:59.707Z,75.55
2018-02-04T05:55:59.690Z,76.12
2018-02-04T05:56:59.667Z,77.15
2018-02-04T05:57:59.713Z,77.72
2018-02-04T05:58:59.629Z,78.39
2018-02-04T05:59:59.607Z,77.53
2018-02-04T06:00:59.588Z,77.15
2018-02-04T06:01:59.570Z,77.06
2018-02-04T06:02:59.597Z,77.34
2018-02-04T06:03:59.544Z,77.44
2018-02-04T06:04:59.505Z,77.34
2018-02-04T06:05:59.487Z,77.39
2018-02-04T06:06:59.465Z,77.20
2018-02-04T06:07:59.443Z,77.20
2018-02-04T06:08:59.438Z,76.82
2018-02-04T06:09:59.401Z,76.82
2018-02-04T06:10:59.382Z,76.91
2018-02-04T06:11:59.357Z,76.34
2018-02-04T06:12:59.341Z,76.15
2018-02-04T06:13:59.347Z,76.34
2018-02-04T06:14:59.299Z,75.78
2018-02-04T06:15:59.282Z,75.59
2018-02-04T06:16:59.256Z,75.87
2018-02-04T06:17:59.240Z,75.96
2018-02-04T06:18:59.221Z,76.34
2018-02-04T06:19:59.214Z,77.10
2018-02-04T06:20:59.178Z,76.91
2018-02-04T06:21:59.157Z,75.96
2018-02-04T06:22:59.133Z,76.15
2018-02-04T06:23:59.116Z,75.78
2018-02-04T06:24:59.093Z,75.59
2018-02-04T06:25:59.085Z,75.49
2018-02-04T06:26:59.052Z,75.87
2018-02-04T06:27:59.031Z,76.15
2018-02-04T06:28:59.012Z,76.34
2018-02-04T06:29:59.024Z,77.10
2018-02-04T06:30:58.988Z,76.53
2018-02-04T06:31:58.949Z,76.53
2018-02-04T06:32:58.925Z,76.63
2018-02-04T06:33:58.909Z,77.48
2018-02-04T06:34:58.888Z,77.58
2018-02-04T06:35:58.869Z,77.20
2018-02-04T06:36:58.863Z,76.82
2018-02-04T06:37:58.827Z,77.10
2018-02-04T06:38:58.805Z,76.34
2018-02-04T06:39:58.786Z,76.06
2018-02-04T06:40:58.766Z,76.82
2018-02-04T06:41:58.764Z,76.82
2018-02-04T06:42:58.724Z,77.29
2018-02-04T06:43:58.703Z,77.39
2018-02-04T06:44:58.683Z,77.58
2018-02-04T06:45:58.662Z,77.58
2018-02-04T06:47:19.651Z,78.05
2018-02-04T06:47:58.623Z,77.86
2018-02-04T06:48:58.604Z,78.05
2018-02-04T06:49:58.594Z,77.76
2018-02-04T06:50:58.562Z,77.20
2018-02-04T06:51:58.538Z,77.86
2018-02-04T06:52:58.532Z,77.95
2018-02-04T06:53:58.502Z,78.52
2018-02-04T06:54:58.476Z,78.33
2018-02-04T06:55:58.456Z,77.86
2018-02-04T06:56:58.436Z,77.86
2018-02-04T06:57:58.647Z,77.86
2018-02-04T06:58:58.503Z,77.86
2018-02-04T06:59:58.374Z,78.05
2018-02-04T07:00:58.356Z,77.76
2018-02-04T07:01:58.336Z,78.33
2018-02-04T07:02:58.328Z,78.33
2018-02-04T07:03:58.479Z,78.42
2018-02-04T07:04:58.273Z,78.71
2018-02-04T07:05:58.250Z,78.90
2018-02-04T07:06:58.232Z,79.18
2018-02-04T07:07:58.232Z,78.99
2018-02-04T07:08:58.194Z,79.18
2018-02-04T07:09:59.124Z,79.85
2018-02-04T07:10:58.373Z,80.41
2018-02-04T07:11:58.130Z,80.60
2018-02-04T07:12:58.109Z,80.22
2018-02-04T07:13:58.106Z,79.66
2018-02-04T07:14:58.064Z,80.32
2018-02-04T07:15:58.047Z,79.75
2018-02-04T07:16:58.028Z,79.85
2018-02-04T07:17:58.017Z,79.75
2018-02-04T07:18:58.003Z,80.13
2018-02-04T07:19:57.973Z,80.22
2018-02-04T07:20:57.951Z,80.22
2018-02-04T07:21:57.928Z,80.13
2018-02-04T07:22:57.906Z,79.94
2018-02-04T07:23:57.901Z,80.69
2018-02-04T07:24:57.863Z,81.07
2018-02-04T07:25:57.849Z,80.88
2018-02-04T07:26:57.826Z,80.60
2018-02-04T07:27:57.818Z,81.07
2018-02-04T07:28:57.802Z,80.98
2018-02-04T07:29:57.784Z,80.51
2018-02-04T07:30:57.745Z,80.69
2018-02-04T07:31:57.728Z,80.98
2018-02-04T07:32:57.707Z,80.79
2018-02-04T07:33:57.715Z,81.17
2018-02-04T07:34:57.675Z,82.02
2018-02-04T07:35:57.665Z,81.36
2018-02-04T07:36:57.637Z,80.79
2018-02-04T07:37:57.604Z,80.60
2018-02-04T07:38:57.583Z,80.13
2018-02-04T07:39:57.575Z,80.04
2018-02-04T07:40:57.548Z,79.85
2018-02-04T07:41:57.555Z,80.13
2018-02-04T07:42:57.504Z,79.56
2018-02-04T07:43:57.487Z,80.13
2018-02-04T07:44:57.464Z,80.60
2018-02-04T07:45:57.444Z,80.51
2018-02-04T07:46:57.453Z,79.66
2018-02-04T07:47:57.402Z,80.60
2018-02-04T07:48:57.407Z,80.51
2018-02-04T07:49:57.376Z,80.88
2018-02-04T07:50:57.350Z,80.88
2018-02-04T07:51:57.324Z,81.26
2018-02-04T07:52:57.325Z,80.13
2018-02-04T07:53:57.287Z,80.88
2018-02-04T07:54:57.254Z,80.60
2018-02-04T07:55:57.248Z,80.41
2018-02-04T07:56:57.236Z,79.56
2018-02-04T07:57:57.215Z,79.75
2018-02-04T07:58:57.180Z,80.22
2018-02-04T07:59:57.161Z,80.13
2018-02-04T08:00:57.141Z,80.98
2018-02-04T08:01:57.119Z,80.79
2018-02-04T08:02:57.122Z,80.79
2018-02-04T08:03:57.091Z,81.45
2018-02-04T08:04:57.060Z,82.31
2018-02-04T08:05:57.042Z,82.31
2018-02-04T08:06:57.018Z,81.74
2018-02-04T08:07:57.002Z,81.83
2018-02-04T08:08:56.992Z,82.50
2018-02-04T08:09:56.969Z,82.50
2018-02-04T08:10:57.630Z,82.12
2018-02-04T08:11:56.923Z,82.87
2018-02-04T08:12:56.916Z,82.40
2018-02-04T08:13:56.911Z,82.12
2018-02-04T08:14:56.865Z,81.83
2018-02-04T08:15:56.834Z,81.83
2018-02-04T08:16:56.828Z,82.21
2018-02-04T08:17:56.812Z,82.12
2018-02-04T08:18:56.799Z,82.02
2018-02-04T08:19:56.844Z,82.31
2018-02-04T08:20:56.780Z,82.31
2018-02-04T08:21:56.777Z,82.31
2018-02-04T08:22:56.712Z,82.40
2018-02-04T08:23:56.824Z,82.50
2018-02-04T08:24:56.721Z,81.93
2018-02-04T08:25:56.645Z,82.02
2018-02-04T08:26:56.651Z,80.98
2018-02-04T08:27:56.607Z,81.07
2018-02-04T08:28:56.628Z,81.45
2018-02-04T08:29:56.576Z,82.50
2018-02-04T08:30:56.564Z,81.93
2018-02-04T08:31:56.545Z,82.12
2018-02-04T08:32:56.526Z,82.31
2018-02-04T08:33:56.509Z,81.26
2018-02-04T08:34:57.130Z,81.83
2018-02-04T08:35:56.506Z,81.45
2018-02-04T08:36:56.428Z,80.69
2018-02-04T08:37:56.426Z,81.26
2018-02-04T08:38:56.433Z,81.36
2018-02-04T08:39:56.374Z,80.83
2018-02-04T08:40:56.423Z,81.02
2018-02-04T08:41:56.378Z,81.40
2018-02-04T08:42:56.346Z,80.64
2018-02-04T08:43:56.299Z,81.68
2018-02-04T08:44:56.324Z,80.93
2018-02-04T08:45:56.282Z,80.26
2018-02-04T08:46:56.265Z,79.69
2018-02-04T08:47:56.225Z,79.98
2018-02-04T08:48:56.233Z,80.26
2018-02-04T08:49:56.167Z,80.83
2018-02-04T08:50:56.193Z,80.74
2018-02-04T08:51:56.162Z,80.83
2018-02-04T08:52:56.155Z,80.83
2018-02-04T08:53:56.082Z,80.83
2018-02-04T08:54:56.063Z,80.17
2018-02-04T08:55:56.047Z,79.60
2018-02-04T08:56:56.024Z,79.79
2018-02-04T08:57:56.002Z,80.83
2018-02-04T08:58:56.012Z,80.55
2018-02-04T08:59:55.960Z,80.64
2018-02-04T09:00:55.957Z,80.55
2018-02-04T09:01:55.955Z,80.93
2018-02-04T09:02:55.911Z,81.12
2018-02-04T09:03:55.881Z,81.68
2018-02-04T09:04:55.897Z,82.15
2018-02-04T09:05:55.871Z,81.96
2018-02-04T09:06:55.839Z,81.59
2018-02-04T09:07:55.836Z,82.25
2018-02-04T09:08:55.801Z,82.25
2018-02-04T09:09:55.768Z,82.25
2018-02-04T09:10:55.765Z,82.44
2018-02-04T09:11:55.729Z,82.25
2018-02-04T09:12:55.706Z,82.34
2018-02-04T09:13:55.718Z,82.15
2018-02-04T09:14:55.682Z,82.06
2018-02-04T09:15:55.651Z,82.53
2018-02-04T09:16:55.644Z,83.10
2018-02-04T09:17:55.618Z,83.29
2018-02-04T09:18:55.594Z,84.14
2018-02-04T09:19:55.572Z,83.76
2018-02-04T09:20:55.558Z,83.29
2018-02-04T09:21:55.531Z,83.58
2018-02-04T09:22:55.529Z,83.10
2018-02-04T09:23:55.525Z,83.39
2018-02-04T09:24:55.468Z,83.39
2018-02-04T09:25:55.466Z,83.29
2018-02-04T09:26:55.485Z,83.20
2018-02-04T09:27:55.411Z,83.86
2018-02-04T09:28:55.393Z,83.67
2018-02-04T09:29:55.371Z,83.76
2018-02-04T09:30:55.366Z,83.20
2018-02-04T09:31:55.333Z,82.25
2018-02-04T09:32:55.313Z,82.06
2018-02-04T09:33:55.290Z,82.25
2018-02-04T09:34:55.349Z,82.25
2018-02-04T09:35:55.271Z,82.10
2018-02-04T09:36:55.235Z,82.95
2018-02-04T09:37:56.134Z,82.67
2018-02-04T09:38:55.216Z,81.82
2018-02-04T09:39:55.181Z,82.39
2018-02-04T09:40:55.172Z,81.92
2018-02-04T09:41:55.152Z,82.06
2018-02-04T09:42:55.115Z,82.53
2018-02-04T09:43:55.119Z,82.72
2018-02-04T09:44:55.095Z,81.87
2018-02-04T09:45:55.072Z,82.15
2018-02-04T09:46:55.048Z,82.25
2018-02-04T09:47:55.025Z,82.72
2018-02-04T09:48:55.030Z,82.34
2018-02-04T09:49:54.986Z,82.25
2018-02-04T09:50:54.985Z,82.34
2018-02-04T09:51:54.968Z,83.01
2018-02-04T09:52:54.924Z,83.20
2018-02-04T09:53:54.910Z,83.20
2018-02-04T09:54:54.894Z,83.76
2018-02-04T09:55:54.881Z,83.58
2018-02-04T09:56:57.564Z,83.86
2018-02-04T09:57:54.828Z,84.05
2018-02-04T09:58:54.841Z,85.47
2018-02-04T10:00:04.075Z,85.85
2018-02-04T10:00:54.779Z,87.17
2018-02-04T10:01:54.760Z,87.36
2018-02-04T10:02:54.740Z,88.21
2018-02-04T10:04:04.549Z,88.78
2018-02-04T10:04:54.703Z,89.35
2018-02-04T10:05:54.685Z,90.67
2018-02-04T10:06:54.659Z,91.24
2018-02-04T10:07:54.642Z,91.34
2018-02-04T10:08:54.623Z,90.67
2018-02-04T10:09:54.620Z,90.58
2018-02-04T10:10:54.583Z,91.62
2018-02-04T10:11:54.577Z,92.10
2018-02-04T10:12:54.541Z,91.72
2018-02-04T10:13:54.533Z,92.29
2018-02-04T10:14:54.505Z,92.85
2018-02-04T10:15:54.519Z,93.18
2018-02-04T10:16:54.487Z,93.66
2018-02-04T10:17:54.455Z,93.47
2018-02-04T10:18:54.439Z,92.24
2018-02-04T10:19:54.412Z,92.33
2018-02-04T10:20:54.414Z,92.43
2018-02-04T10:22:15.386Z,93.18
2018-02-04T10:22:54.349Z,93.85
2018-02-04T10:23:54.327Z,93.94
2018-02-04T10:24:54.310Z,93.47
2018-02-04T10:25:54.305Z,93.18
2018-02-04T10:26:54.270Z,93.47
2018-02-04T10:27:54.266Z,94.42
2018-02-04T10:28:54.228Z,94.13
2018-02-04T10:29:54.226Z,94.70
2018-02-04T10:30:54.212Z,94.32
2018-02-04T10:31:54.170Z,93.94
2018-02-04T10:32:54.166Z,94.13
2018-02-04T10:33:54.153Z,94.13
2018-02-04T10:34:54.115Z,94.13
2018-02-04T10:35:54.110Z,94.23
2018-02-04T10:36:54.080Z,94.89
2018-02-04T10:37:54.068Z,95.17
2018-02-04T10:38:54.035Z,94.70
2018-02-04T10:39:54.014Z,95.26
2018-02-04T10:40:54.001Z,95.17
2018-02-04T10:41:53.976Z,95.07
2018-02-04T10:42:53.973Z,95.74
2018-02-04T10:43:53.932Z,95.45
2018-02-04T10:44:53.912Z,95.17
2018-02-04T10:45:53.897Z,95.26
2018-02-04T10:46:53.878Z,95.64
2018-02-04T10:47:53.870Z,96.50
2018-02-04T10:48:53.839Z,95.93
2018-02-04T10:49:53.812Z,96.40
2018-02-04T10:50:53.795Z,96.02
2018-02-04T10:51:53.780Z,96.02
2018-02-04T10:52:53.770Z,97.16
2018-02-04T10:53:53.733Z,96.88
2018-02-04T10:54:53.712Z,97.25
2018-02-04T10:55:53.714Z,97.06
2018-02-04T10:56:53.674Z,97.06
2018-02-04T10:57:53.683Z,96.69
2018-02-04T10:58:53.634Z,97.06
2018-02-04T10:59:53.617Z,97.06
2018-02-04T11:00:53.633Z,97.82
2018-02-04T11:01:53.578Z,97.82
2018-02-04T11:02:53.578Z,97.72
2018-02-04T11:03:53.539Z,98.20
2018-02-04T11:04:53.528Z,98.58
2018-02-04T11:05:53.498Z,98.77
2018-02-04T11:06:53.477Z,99.05
2018-02-04T11:07:53.468Z,99.15
2018-02-04T11:08:53.460Z,98.77
2018-02-04T11:09:53.416Z,99.24
2018-02-04T11:10:53.390Z,99.99
2018-02-04T11:11:53.377Z,99.99
2018-02-04T11:12:53.359Z,99.52
2018-02-04T11:13:53.352Z,99.99
2018-02-04T11:14:53.313Z,99.99
2018-02-04T11:15:53.297Z,99.99
2018-02-04T11:16:53.294Z,99.99
2018-02-04T11:17:53.258Z,99.99
2018-02-04T11:18:53.237Z,99.99
2018-02-04T11:19:53.228Z,99.99
2018-02-04T11:20:53.193Z,99.99
2018-02-04T11:22:14.182Z,99.99
2018-02-04T11:22:53.150Z,99.99
2018-02-04T11:23:53.143Z,99.99
2018-02-04T11:24:53.130Z,99.99
2018-02-04T11:25:53.098Z,99.99
2018-02-04T11:26:53.097Z,99.99
2018-02-04T11:27:53.060Z,99.99
2018-02-04T11:28:53.034Z,99.99
2018-02-04T11:29:53.030Z,99.99
2018-02-04T11:30:52.997Z,99.99
2018-02-04T11:31:54.920Z,99.99
2018-02-04T11:32:52.969Z,99.99
2018-02-04T11:33:52.937Z,99.99
2018-02-04T11:34:52.914Z,99.99
2018-02-04T11:35:52.892Z,99.99
2018-02-04T11:36:52.873Z,99.99
2018-02-04T11:37:52.875Z,99.99
2018-02-04T11:38:52.839Z,99.99
2018-02-04T11:39:52.820Z,99.99
2018-02-04T11:40:52.798Z,99.99
2018-02-04T11:41:52.776Z,99.99
2018-02-04T11:42:52.753Z,99.99
2018-02-04T11:44:13.754Z,99.99
2018-02-04T11:44:52.716Z,99.99
2018-02-04T11:45:52.696Z,99.99
2018-02-04T11:46:52.676Z,99.99
2018-02-04T11:47:52.726Z,99.99
2018-02-04T11:48:52.642Z,99.99
2018-02-04T11:49:52.631Z,99.99
2018-02-04T11:50:52.605Z,99.99
2018-02-04T11:51:52.576Z,99.99
2018-02-04T11:52:52.559Z,99.99
2018-02-04T11:53:52.538Z,99.99
2018-02-04T11:54:52.535Z,99.85
2018-02-04T11:55:52.494Z,99.76
2018-02-04T11:56:52.471Z,99.38
2018-02-04T11:57:52.459Z,99.48
2018-02-04T11:58:52.454Z,99.19
2018-02-04T11:59:52.422Z,98.82
2018-02-04T12:00:52.410Z,98.25
2018-02-04T12:01:52.377Z,97.87
2018-02-04T12:02:52.361Z,97.87
2018-02-04T12:03:52.356Z,97.68
2018-02-04T12:04:52.320Z,97.58
2018-02-04T12:05:52.306Z,97.87
2018-02-04T12:06:52.296Z,97.87
2018-02-04T12:07:52.263Z,97.49
2018-02-04T12:08:52.258Z,97.49
2018-02-04T12:09:52.245Z,97.30
2018-02-04T12:10:52.202Z,97.30
2018-02-04T12:11:52.198Z,97.39
2018-02-04T12:12:54.056Z,97.58
2018-02-04T12:13:52.557Z,97.77
2018-02-04T12:14:52.143Z,97.68
2018-02-04T12:15:52.103Z,98.15
2018-02-04T12:16:52.086Z,97.87
2018-02-04T12:17:52.065Z,98.34
2018-02-04T12:18:52.074Z,98.34
2018-02-04T12:19:52.055Z,98.34
2018-02-04T12:20:52.049Z,98.63
2018-02-04T12:21:51.986Z,98.63
2018-02-04T12:22:51.969Z,98.34
2018-02-04T12:23:51.944Z,98.34
2018-02-04T12:24:52.686Z,98.44
2018-02-04T12:25:51.925Z,98.44
2018-02-04T12:26:51.885Z,97.68
2018-02-04T12:27:51.861Z,97.87
2018-02-04T12:28:52.671Z,97.20
2018-02-04T12:29:51.832Z,97.39
2018-02-04T12:30:51.812Z,96.83
2018-02-04T12:31:51.786Z,97.30
2018-02-04T12:32:51.765Z,97.20
2018-02-04T12:33:51.761Z,96.92
2018-02-04T12:34:51.728Z,96.45
2018-02-04T12:35:51.725Z,96.73
2018-02-04T12:36:52.645Z,96.64
2018-02-04T12:37:51.683Z,96.26
2018-02-04T12:38:51.649Z,95.88
2018-02-04T12:39:51.651Z,95.59
2018-02-04T12:40:51.610Z,95.78
2018-02-04T12:41:51.590Z,95.31
2018-02-04T12:42:51.585Z,95.78
2018-02-04T12:43:51.546Z,96.35
2018-02-04T12:44:51.532Z,96.45
2018-02-04T12:45:51.525Z,96.54
2018-02-04T12:46:51.497Z,97.11
2018-02-04T12:47:51.497Z,97.11
2018-02-04T12:48:51.482Z,96.64
2018-02-04T12:49:51.435Z,97.02
2018-02-04T12:50:54.157Z,97.11
2018-02-04T12:51:51.426Z,96.73